createdAt,value
2022-10-19T00:01:48.746Z,8.48
2022-10-19T00:04:18.818Z,8.02
2022-10-19T00:06:49.220Z,8.82
2022-10-19T00:09:21.360Z,10.02
2022-10-19T00:11:52.411Z,8.70
2022-10-19T00:14:25.729Z,8.63
2022-10-19T00:16:56.809Z,12.20
2022-10-19T00:19:29.663Z,10.57
2022-10-19T00:21:59.646Z,9.27
2022-10-19T00:24:29.778Z,12.10
2022-10-19T00:26:59.728Z,10.73
2022-10-19T00:29:30.072Z,10.77
2022-10-19T00:31:59.991Z,9.32
2022-10-19T00:34:30.017Z,12.80
2022-10-19T00:36:59.763Z,10.73
2022-10-19T00:39:29.780Z,13.18
2022-10-19T00:41:59.567Z,11.50
2022-10-19T00:44:33.019Z,10.25
2022-10-19T00:47:09.126Z,13.30
2022-10-19T00:49:43.986Z,10.45
2022-10-19T00:52:17.947Z,9.55
2022-10-19T00:54:50.512Z,7.82
2022-10-19T00:57:22.060Z,9.27
2022-10-19T00:59:52.872Z,8.40
2022-10-19T01:02:23.107Z,10.15
2022-10-19T01:04:54.823Z,11.43
2022-10-19T01:07:27.493Z,10.40
2022-10-19T01:09:59.388Z,14.85
2022-10-19T01:12:49.050Z,22.80
2022-10-19T01:15:42.133Z,14.05
2022-10-19T01:18:29.639Z,10.18
2022-10-19T01:21:36.571Z,11.98
2022-10-19T01:24:29.148Z,12.07
2022-10-19T01:27:29.854Z,8.75
2022-10-19T01:30:22.011Z,10.60
2022-10-19T01:33:15.881Z,8.95
2022-10-19T01:35:57.717Z,9.80
2022-10-19T01:38:47.668Z,8.57
2022-10-19T01:41:42.417Z,10.65
2022-10-19T01:44:24.814Z,9.77
2022-10-19T01:47:07.281Z,8.45
2022-10-19T01:49:46.236Z,11.07
2022-10-19T01:52:20.907Z,9.75
2022-10-19T01:54:54.547Z,11.10
2022-10-19T01:57:53.673Z,10.35
2022-10-19T02:00:25.345Z,13.32
2022-10-19T02:02:57.263Z,10.35
2022-10-19T02:05:31.630Z,9.95
2022-10-19T02:08:06.449Z,12.57
2022-10-19T02:10:40.064Z,10.15
2022-10-19T02:13:13.159Z,13.02
2022-10-19T02:15:48.553Z,10.80
2022-10-19T02:18:25.254Z,13.55
2022-10-19T02:20:55.749Z,14.50
2022-10-19T02:23:29.626Z,17.08
2022-10-19T02:26:00.638Z,16.90
2022-10-19T02:28:32.371Z,16.52
2022-10-19T02:31:03.377Z,18.02
2022-10-19T02:33:33.998Z,16.80
2022-10-19T02:36:04.772Z,13.63
2022-10-19T02:38:34.715Z,11.35
2022-10-19T02:41:21.913Z,12.32
2022-10-19T02:43:58.715Z,10.25
2022-10-19T02:49:11.884Z,12.07
2022-10-19T02:51:57.606Z,11.02
2022-10-19T02:54:28.382Z,13.00
2022-10-19T02:56:58.867Z,10.77
2022-10-19T02:59:28.855Z,10.18
2022-10-19T03:01:58.586Z,11.65
2022-10-19T03:04:28.586Z,9.27
2022-10-19T03:06:58.607Z,11.60
2022-10-19T03:09:28.454Z,8.32
2022-10-19T03:11:58.609Z,12.65
2022-10-19T03:14:28.329Z,10.85
2022-10-19T03:16:58.110Z,8.43
2022-10-19T03:19:27.954Z,7.72
2022-10-19T03:21:57.758Z,7.70
2022-10-19T03:24:27.658Z,11.65
2022-10-19T03:26:57.477Z,7.60
2022-10-19T03:29:27.392Z,8.10
2022-10-19T03:31:57.207Z,11.48
2022-10-19T03:34:27.401Z,10.20
2022-10-19T03:36:57.900Z,7.28
2022-10-19T03:39:28.238Z,8.70
2022-10-19T03:41:57.977Z,8.70
2022-10-19T03:44:28.301Z,8.02
2022-10-19T03:46:58.077Z,6.78
2022-10-19T03:49:27.811Z,7.38
2022-10-19T03:51:57.588Z,11.95
2022-10-19T03:54:27.640Z,6.35
2022-10-19T03:56:57.468Z,10.98
2022-10-19T03:59:27.292Z,10.27
2022-10-19T04:01:57.415Z,8.32
2022-10-19T04:04:27.355Z,6.45
2022-10-19T04:06:57.559Z,8.65
2022-10-19T04:09:27.382Z,6.03
2022-10-19T04:11:58.345Z,11.63
2022-10-19T04:14:33.317Z,5.75
2022-10-19T04:17:09.598Z,15.15
2022-10-19T04:19:39.355Z,10.15
2022-10-19T04:22:09.123Z,9.55
2022-10-19T04:24:39.255Z,5.68
2022-10-19T04:27:09.450Z,5.15
2022-10-19T04:29:39.614Z,11.55
2022-10-19T04:32:09.483Z,8.00
2022-10-19T04:34:40.104Z,14.57
2022-10-19T04:37:10.278Z,10.70
2022-10-19T04:39:42.192Z,8.10
2022-10-19T04:42:12.642Z,11.20
2022-10-19T04:44:42.529Z,7.82
2022-10-19T04:47:12.638Z,10.93
2022-10-19T04:49:42.377Z,6.20
2022-10-19T04:52:14.387Z,8.02
2022-10-19T04:54:44.801Z,6.53
2022-10-19T04:57:14.681Z,8.10
2022-10-19T04:59:44.417Z,8.05
2022-10-19T05:02:14.260Z,7.35
2022-10-19T05:04:45.188Z,6.53
2022-10-19T05:07:16.104Z,7.63
2022-10-19T05:09:46.050Z,5.40
2022-10-19T05:12:15.807Z,8.25
2022-10-19T05:14:45.752Z,10.35
2022-10-19T05:17:15.495Z,5.43
2022-10-19T05:19:45.588Z,9.30
2022-10-19T05:22:15.388Z,13.70
2022-10-19T05:24:45.133Z,9.77
2022-10-19T05:27:15.460Z,6.15
2022-10-19T05:29:45.223Z,10.68
2022-10-19T05:32:15.581Z,10.20
2022-10-19T05:34:45.377Z,8.07
2022-10-19T05:37:15.176Z,11.43
2022-10-19T05:39:45.336Z,7.40
2022-10-19T05:42:15.540Z,6.85
2022-10-19T05:44:45.593Z,12.50
2022-10-19T05:47:15.382Z,7.95
2022-10-19T05:49:45.128Z,8.80
2022-10-19T05:52:15.037Z,9.35
2022-10-19T05:54:45.081Z,9.48
2022-10-19T05:57:15.309Z,5.35
2022-10-19T05:59:45.489Z,4.70
2022-10-19T06:02:16.022Z,5.38
2022-10-19T06:04:45.957Z,5.28
2022-10-19T06:07:16.115Z,7.50
2022-10-19T06:09:46.895Z,4.90
2022-10-19T06:12:18.612Z,4.60
2022-10-19T06:14:52.861Z,5.20
2022-10-19T06:17:23.303Z,7.50
2022-10-19T06:19:53.119Z,6.75
2022-10-19T06:22:23.137Z,6.20
2022-10-19T06:24:52.894Z,7.13
2022-10-19T06:27:23.236Z,6.07
2022-10-19T06:29:53.063Z,9.05
2022-10-19T06:32:23.184Z,6.55
2022-10-19T06:34:56.415Z,8.40
2022-10-19T06:37:26.924Z,8.90
2022-10-19T06:39:56.880Z,5.50
2022-10-19T06:42:28.181Z,5.00
2022-10-19T06:44:58.675Z,16.60
2022-10-19T06:47:32.674Z,10.05
2022-10-19T06:50:03.684Z,13.05
2022-10-19T06:52:35.633Z,7.70
2022-10-19T06:57:35.880Z,6.65
2022-10-19T07:00:08.796Z,8.13
2022-10-19T07:02:40.149Z,6.70
2022-10-19T07:05:11.302Z,6.40
2022-10-19T07:07:41.583Z,11.10
2022-10-19T07:10:11.497Z,10.25
2022-10-19T07:12:41.358Z,8.52
2022-10-19T07:15:12.113Z,9.50
2022-10-19T07:17:42.036Z,7.55
2022-10-19T07:20:12.696Z,9.07
2022-10-19T07:22:42.860Z,9.00
2022-10-19T07:25:13.179Z,7.07
2022-10-19T07:27:43.392Z,8.90
2022-10-19T07:30:13.769Z,14.90
2022-10-19T07:32:46.915Z,10.73
2022-10-19T07:35:17.895Z,8.95
2022-10-19T07:37:48.168Z,26.77
2022-10-19T07:40:17.989Z,23.05
2022-10-19T07:42:47.818Z,24.63
2022-10-19T07:45:17.619Z,32.00
2022-10-19T07:47:47.422Z,32.63
2022-10-19T07:50:17.627Z,26.48
2022-10-19T07:52:48.307Z,29.10
2022-10-19T07:55:18.783Z,25.67
2022-10-19T07:57:51.836Z,23.83
2022-10-19T08:00:22.329Z,47.35
2022-10-19T08:03:19.310Z,22.92
2022-10-19T08:05:43.105Z,19.60
2022-10-19T08:08:13.111Z,48.13
2022-10-19T08:10:42.881Z,36.53
2022-10-19T08:13:12.632Z,31.65
2022-10-19T08:15:42.371Z,40.03
2022-10-19T08:18:12.651Z,39.55
2022-10-19T08:20:43.879Z,34.50
2022-10-19T08:23:14.001Z,38.35
2022-10-19T08:25:43.801Z,32.90
2022-10-19T08:28:14.275Z,36.90
2022-10-19T08:30:44.488Z,42.70
2022-10-19T08:33:16.361Z,32.55
2022-10-19T08:35:46.469Z,30.67
2022-10-19T08:38:16.354Z,28.80
2022-10-19T08:40:47.291Z,30.17
2022-10-19T08:43:41.538Z,26.92
2022-10-19T08:46:15.250Z,29.70
2022-10-19T08:48:46.119Z,26.15
2022-10-19T08:51:16.413Z,22.98
2022-10-19T08:53:57.755Z,19.85
2022-10-19T08:56:50.399Z,19.30
2022-10-19T08:59:49.171Z,20.60
2022-10-19T09:02:34.894Z,18.80
2022-10-19T09:05:22.530Z,16.23
2022-10-19T09:07:55.901Z,24.88
2022-10-19T09:10:30.797Z,18.73
2022-10-19T09:13:06.331Z,18.83
2022-10-19T09:15:51.619Z,19.38
2022-10-19T09:21:12.163Z,16.83
2022-10-19T09:23:48.112Z,17.38
2022-10-19T09:26:20.790Z,17.05
2022-10-19T09:29:16.866Z,11.48
2022-10-19T09:31:47.549Z,13.00
2022-10-19T09:34:20.776Z,10.85
2022-10-19T09:36:59.457Z,13.68
2022-10-19T09:39:32.550Z,11.05
2022-10-19T09:42:24.296Z,11.57
2022-10-19T09:44:56.707Z,13.80
2022-10-19T09:47:41.599Z,12.27
2022-10-19T09:50:22.969Z,12.05
2022-10-19T09:53:01.377Z,12.10
2022-10-19T09:55:45.259Z,12.10
2022-10-19T09:58:15.804Z,10.55
2022-10-19T10:00:56.103Z,9.82
2022-10-19T10:03:44.556Z,9.60
2022-10-19T10:06:18.982Z,10.55
2022-10-19T10:08:52.224Z,9.20
2022-10-19T10:11:30.628Z,12.45
2022-10-19T10:14:09.827Z,10.68
2022-10-19T10:16:40.093Z,10.80
2022-10-19T10:19:14.017Z,11.18
2022-10-19T10:21:53.838Z,8.55
2022-10-19T10:24:31.968Z,8.38
2022-10-19T10:27:07.826Z,8.60
2022-10-19T10:29:40.483Z,8.57
2022-10-19T10:32:21.498Z,8.60
2022-10-19T10:35:17.893Z,10.63
2022-10-19T10:37:49.040Z,9.77
2022-10-19T10:40:52.462Z,8.73
2022-10-19T10:43:29.351Z,10.63
2022-10-19T10:46:16.257Z,7.28
2022-10-19T10:49:00.045Z,8.70
2022-10-19T10:51:57.838Z,9.57
2022-10-19T10:57:12.873Z,11.20
2022-10-19T11:00:12.501Z,6.95
2022-10-19T11:02:48.436Z,7.57
2022-10-19T11:05:43.515Z,9.45
2022-10-19T11:08:30.530Z,6.88
2022-10-19T11:11:24.145Z,7.07
2022-10-19T11:14:03.640Z,6.13
2022-10-19T11:16:40.721Z,8.05
2022-10-19T11:19:28.551Z,4.55
2022-10-19T11:22:26.370Z,7.13
2022-10-19T11:25:21.590Z,4.88
2022-10-19T11:28:26.263Z,4.05
2022-10-19T11:31:08.592Z,5.72
2022-10-19T11:33:50.084Z,3.97
2022-10-19T11:36:59.862Z,6.13
2022-10-19T11:39:38.849Z,5.07
2022-10-19T11:42:20.627Z,5.32
2022-10-19T11:44:56.007Z,4.72
2022-10-19T11:48:02.119Z,4.82
2022-10-19T11:50:46.682Z,4.82
2022-10-19T11:53:30.365Z,6.47
2022-10-19T11:56:39.123Z,8.60
2022-10-19T11:59:19.515Z,5.82
2022-10-19T12:01:55.698Z,6.53
2022-10-19T12:04:52.082Z,6.60
2022-10-19T12:07:54.478Z,6.35
2022-10-19T12:11:18.741Z,10.30
2022-10-19T12:14:07.648Z,3.75
2022-10-19T12:16:45.066Z,7.38
2022-10-19T12:19:32.743Z,7.10
2022-10-19T12:22:07.028Z,7.40
2022-10-19T12:24:37.731Z,5.45
2022-10-19T12:27:11.941Z,6.20
2022-10-19T12:29:45.453Z,5.70
2022-10-19T12:32:18.816Z,6.80
2022-10-19T12:35:14.549Z,8.95
2022-10-19T12:37:54.578Z,4.88
2022-10-19T12:40:55.371Z,4.85
2022-10-19T12:43:29.289Z,8.07
2022-10-19T12:46:22.914Z,8.23
2022-10-19T12:49:42.031Z,7.07
2022-10-19T12:52:12.828Z,8.00
2022-10-19T12:54:44.668Z,8.30
2022-10-19T12:57:31.408Z,17.35
2022-10-19T13:00:08.667Z,6.57
2022-10-19T13:02:41.491Z,6.80
2022-10-19T13:05:22.855Z,4.30
2022-10-19T13:07:54.005Z,9.52
2022-10-19T13:10:27.935Z,14.80
2022-10-19T13:12:58.077Z,12.70
2022-10-19T13:15:40.011Z,7.15
2022-10-19T13:18:18.004Z,8.90
2022-10-19T13:20:55.719Z,5.50
2022-10-19T13:23:28.647Z,3.95
2022-10-19T13:26:25.604Z,4.78
2022-10-19T13:28:58.643Z,3.13
2022-10-19T13:31:32.336Z,2.97
2022-10-19T13:34:02.475Z,3.03
2022-10-19T13:36:33.430Z,3.05
2022-10-19T13:39:07.134Z,4.90
2022-10-19T13:41:39.146Z,5.28
2022-10-19T13:44:20.914Z,2.15
2022-10-19T13:47:15.518Z,2.90
2022-10-19T13:49:59.364Z,3.05
2022-10-19T13:52:38.364Z,5.00
2022-10-19T13:55:36.788Z,3.22
2022-10-19T13:58:50.807Z,2.65
2022-10-19T14:01:36.500Z,5.97
2022-10-19T14:04:40.365Z,8.55
2022-10-19T14:07:30.194Z,4.45
2022-10-19T14:10:04.178Z,5.60
2022-10-19T14:12:38.672Z,3.72
2022-10-19T14:15:32.272Z,5.20
2022-10-19T14:18:05.802Z,3.65
2022-10-19T14:20:40.756Z,4.95
2022-10-19T14:23:21.648Z,5.03
2022-10-19T14:26:08.324Z,5.57
2022-10-19T14:28:45.127Z,3.50
2022-10-19T14:31:23.935Z,5.68
2022-10-19T14:33:59.534Z,4.07
2022-10-19T14:36:38.440Z,3.58
2022-10-19T14:39:09.332Z,3.80
2022-10-19T14:41:40.027Z,4.85
2022-10-19T14:44:38.794Z,7.40
2022-10-19T14:47:17.512Z,7.32
2022-10-19T14:49:47.682Z,4.75
2022-10-19T14:52:34.245Z,3.00
2022-10-19T14:55:17.781Z,3.78
2022-10-19T14:57:53.644Z,2.20
2022-10-19T15:03:03.425Z,3.90
2022-10-19T15:05:41.754Z,2.92
2022-10-19T15:08:24.569Z,4.10
2022-10-19T15:10:55.060Z,2.55
2022-10-19T15:13:42.706Z,3.10
2022-10-19T15:16:41.982Z,3.17
2022-10-19T15:19:38.034Z,2.30
2022-10-19T15:22:16.885Z,3.55
2022-10-19T15:25:20.488Z,4.05
2022-10-19T15:27:52.082Z,3.10
2022-10-19T15:33:14.636Z,3.60
2022-10-19T15:35:46.685Z,2.60
2022-10-19T15:40:48.355Z,2.78
2022-10-19T15:43:35.958Z,3.90
2022-10-19T15:46:15.539Z,2.58
2022-10-19T15:48:55.388Z,2.53
2022-10-19T15:51:28.655Z,3.15
2022-10-19T15:54:07.255Z,2.05
2022-10-19T15:56:40.300Z,1.95
2022-10-19T15:59:22.160Z,5.55
2022-10-19T16:01:53.796Z,3.13
2022-10-19T16:04:25.909Z,3.40
2022-10-19T16:06:56.242Z,3.25
2022-10-19T16:09:26.432Z,2.97
2022-10-19T16:11:58.462Z,5.53
2022-10-19T16:14:31.906Z,2.88
2022-10-19T16:17:06.659Z,3.63
2022-10-19T16:19:37.039Z,5.35
2022-10-19T16:22:07.123Z,2.85
2022-10-19T16:24:36.919Z,4.90
2022-10-19T16:27:07.018Z,3.08
2022-10-19T16:29:37.165Z,3.78
2022-10-19T16:32:07.464Z,5.00
2022-10-19T16:34:37.522Z,5.80
2022-10-19T16:37:07.977Z,4.72
2022-10-19T16:39:38.168Z,6.13
2022-10-19T16:42:08.134Z,3.95
2022-10-19T16:44:37.890Z,3.33
2022-10-19T16:47:07.896Z,4.50
2022-10-19T16:49:37.680Z,3.60
2022-10-19T16:52:07.677Z,3.88
2022-10-19T16:54:37.926Z,3.13
2022-10-19T16:57:09.898Z,4.25
2022-10-19T16:59:40.342Z,2.88
2022-10-19T17:02:12.534Z,2.45
2022-10-19T17:04:42.903Z,4.60
2022-10-19T17:07:14.032Z,3.47
2022-10-19T17:09:44.454Z,4.55
2022-10-19T17:12:15.038Z,3.15
2022-10-19T17:14:45.843Z,3.55
2022-10-19T17:17:18.232Z,4.57
2022-10-19T17:19:49.991Z,4.55
2022-10-19T17:22:20.290Z,3.10
2022-10-19T17:24:50.099Z,3.70
2022-10-19T17:27:20.002Z,5.43
2022-10-19T17:29:50.367Z,3.88
2022-10-19T17:32:20.244Z,6.15
2022-10-19T17:34:50.075Z,3.33
2022-10-19T17:37:19.818Z,3.90
2022-10-19T17:39:52.726Z,3.22
2022-10-19T17:42:23.146Z,4.15
2022-10-19T17:44:55.660Z,3.22
2022-10-19T17:47:25.619Z,4.47
2022-10-19T17:49:55.410Z,3.38
2022-10-19T17:52:25.203Z,3.15
2022-10-19T17:57:45.498Z,4.60
2022-10-19T18:00:16.161Z,2.58
2022-10-19T18:02:47.596Z,3.50
2022-10-19T18:05:18.016Z,3.60
2022-10-19T18:07:48.234Z,2.70
2022-10-19T18:10:18.572Z,3.38
2022-10-19T18:12:49.128Z,3.67
2022-10-19T18:15:19.473Z,3.17
2022-10-19T18:17:49.672Z,4.65
2022-10-19T18:20:19.950Z,4.03
2022-10-19T18:22:49.696Z,3.08
2022-10-19T18:25:25.971Z,3.97
2022-10-19T18:28:07.416Z,5.72
2022-10-19T18:30:39.089Z,4.97
2022-10-19T18:33:09.521Z,3.45
2022-10-19T18:35:41.059Z,6.60
2022-10-19T18:40:40.957Z,4.38
2022-10-19T18:43:10.870Z,3.83
2022-10-19T18:45:40.924Z,4.90
2022-10-19T18:48:10.773Z,8.40
2022-10-19T18:50:40.550Z,4.88
2022-10-19T18:53:10.332Z,3.20
2022-10-19T18:55:40.152Z,4.05
2022-10-19T18:58:10.964Z,5.47
2022-10-19T19:00:45.704Z,3.88
2022-10-19T19:03:15.910Z,3.75
2022-10-19T19:05:45.681Z,4.90
2022-10-19T19:08:15.949Z,4.95
2022-10-19T19:10:47.481Z,4.35
2022-10-19T19:13:17.396Z,5.18
2022-10-19T19:15:47.927Z,5.82
2022-10-19T19:20:53.177Z,4.22
2022-10-19T19:23:23.419Z,3.05
2022-10-19T19:25:53.222Z,4.15
2022-10-19T19:28:23.206Z,3.53
2022-10-19T19:30:53.106Z,3.50
2022-10-19T19:33:22.931Z,2.92
2022-10-19T19:35:53.484Z,2.90
2022-10-19T19:38:23.387Z,5.13
2022-10-19T19:40:53.144Z,3.42
2022-10-19T19:43:22.919Z,2.92
2022-10-19T19:46:06.318Z,4.80
2022-10-19T19:48:39.529Z,4.18
2022-10-19T19:51:18.164Z,3.22
2022-10-19T19:53:49.412Z,3.78
2022-10-19T19:56:19.762Z,2.85
2022-10-19T19:58:50.151Z,2.85
2022-10-19T20:01:22.247Z,3.08
2022-10-19T20:03:52.620Z,3.35
2022-10-19T20:06:25.162Z,3.22
2022-10-19T20:08:57.627Z,4.03
2022-10-19T20:11:31.941Z,3.42
2022-10-19T20:14:02.331Z,5.72
2022-10-19T20:16:35.525Z,4.25
2022-10-19T20:19:13.875Z,2.80
2022-10-19T20:24:14.364Z,4.95
2022-10-19T20:26:44.937Z,2.65
2022-10-19T20:29:15.212Z,4.40
2022-10-19T20:31:44.990Z,3.88
2022-10-19T20:34:21.730Z,6.15
2022-10-19T20:36:54.435Z,8.40
2022-10-19T20:39:24.494Z,2.92
2022-10-19T20:41:55.049Z,3.47
2022-10-19T20:44:25.251Z,3.78
2022-10-19T20:46:55.105Z,3.25
2022-10-19T20:49:24.937Z,2.72
2022-10-19T20:51:56.085Z,3.00
2022-10-19T20:54:26.073Z,4.13
2022-10-19T20:56:56.682Z,5.13
2022-10-19T20:59:28.795Z,3.90
2022-10-19T21:01:59.525Z,8.20
2022-10-19T21:04:29.628Z,5.07
2022-10-19T21:07:01.082Z,5.75
2022-10-19T21:09:31.487Z,5.13
2022-10-19T21:12:02.708Z,5.38
2022-10-19T21:14:34.041Z,3.60
2022-10-19T21:17:04.448Z,3.70
2022-10-19T21:19:34.407Z,3.88
2022-10-19T21:22:04.733Z,3.15
2022-10-19T21:24:37.244Z,4.60
2022-10-19T21:27:10.283Z,3.97
2022-10-19T21:29:40.577Z,4.35
2022-10-19T21:32:10.485Z,4.90
2022-10-19T21:34:40.255Z,6.32
2022-10-19T21:37:10.267Z,4.93
2022-10-19T21:39:40.739Z,6.32
2022-10-19T21:42:10.857Z,5.47
2022-10-19T21:44:40.725Z,6.57
2022-10-19T21:47:10.949Z,6.18
2022-10-19T21:49:40.788Z,8.20
2022-10-19T21:52:15.121Z,7.47
2022-10-19T21:54:45.952Z,6.72
2022-10-19T21:57:16.213Z,5.10
2022-10-19T21:59:46.218Z,6.85
2022-10-19T22:02:16.073Z,6.97
2022-10-19T22:04:45.898Z,6.28
2022-10-19T22:07:16.109Z,4.78
2022-10-19T22:09:45.961Z,4.68
2022-10-19T22:12:15.780Z,7.07
2022-10-19T22:14:46.457Z,7.95
2022-10-19T22:17:16.282Z,5.40
2022-10-19T22:19:46.384Z,4.55
2022-10-19T22:22:16.134Z,6.38
2022-10-19T22:24:45.867Z,7.72
2022-10-19T22:27:16.765Z,10.80
2022-10-19T22:29:46.650Z,7.22
2022-10-19T22:32:16.675Z,6.57
2022-10-19T22:34:46.447Z,7.18
2022-10-19T22:37:16.166Z,5.82
2022-10-19T22:39:45.921Z,7.20
2022-10-19T22:42:19.303Z,6.68
2022-10-19T22:44:49.692Z,6.43
2022-10-19T22:47:19.515Z,5.88
2022-10-19T22:49:49.292Z,6.20
2022-10-19T22:52:19.152Z,8.93
2022-10-19T22:54:48.971Z,8.35
2022-10-19T22:57:19.170Z,5.60
2022-10-19T22:59:49.062Z,4.93
2022-10-19T23:02:19.309Z,5.90
2022-10-19T23:04:50.073Z,7.38
2022-10-19T23:07:20.510Z,7.38
2022-10-19T23:09:50.770Z,6.45
2022-10-19T23:12:20.792Z,5.95
2022-10-19T23:14:50.606Z,5.75
2022-10-19T23:17:20.418Z,7.53
2022-10-19T23:19:50.223Z,9.15
2022-10-19T23:22:20.054Z,4.68
2022-10-19T23:24:50.262Z,6.00
2022-10-19T23:27:21.191Z,5.78
2022-10-19T23:29:51.591Z,5.78
2022-10-19T23:32:21.409Z,5.65
2022-10-19T23:34:51.309Z,5.40
2022-10-19T23:37:21.082Z,7.03
2022-10-19T23:39:51.200Z,6.90
2022-10-19T23:42:21.038Z,6.32
2022-10-19T23:44:51.337Z,8.50
2022-10-19T23:47:21.230Z,7.45
2022-10-19T23:49:51.123Z,5.70
2022-10-19T23:52:21.028Z,7.28
2022-10-19T23:54:51.270Z,6.85
2022-10-19T23:57:21.236Z,7.25
2022-10-19T23:59:51.099Z,10.05
